Home   Weather   India   Kathua   Past weeks
Flag for India

Past Weather in Kathua, Jammu and Kashmir, India — Yesterday and Last 2 Weeks

Currently: 46 °F. Fog. (Weather station: Amritsar Airport, India). See more current weather

Past Weather in Kathua — Graph

°F

Kathua Temperature Yesterday

Maximum temperature yesterday: 73 °F (at 2:30 pm)
Minimum temperature yesterday: 46 °F (at 7:00 am)
Average temperature yesterday: 58 °F

High & Low Weather Summary for the Past Weeks

 TemperatureHumidityPressure
High81 °F (Nov 24, 3:00 pm)100% (Nov 27, 3:00 am)30.12 "Hg (Nov 27, 3:00 am)
Low43 °F (Dec 6, 7:30 am)23% (Nov 24, 3:00 pm)29.86 "Hg (Nov 27, 3:00 am)
Average60 °F77%29.99 "Hg
* Reported Nov 23 6:30 am — Dec 8 6:30 am, Kathua. Weather by CustomWeather, © 2022

Note: Actual official high and low records may vary slightly from our data, if they occured in-between our weather recording intervals... More about our weather records

Kathua Weather History for the Previous 24 Hours

Scroll right to see more
 ConditionsComfort  
Time TempWeatherWind HumidityBarometerVisibility
6:30 am
Thu, Dec 8
46 °FFog.No wind93%30.01 "Hg1 mi
5:00 am48 °FFog.No wind94%29.98 "Hg1 mi
4:30 am50 °FFog.No wind94%29.98 "Hg1 mi
4:00 am50 °FFog.No wind94%29.98 "Hg1 mi
3:30 am50 °FFog.No wind94%29.98 "Hg1 mi
2:30 am52 °FFog.No wind88%29.98 "Hg1 mi
2:00 am52 °FFog.No wind88%29.98 "Hg1 mi
1:30 am54 °FFog.No wind88%29.98 "Hg1 mi
1:00 am55 °FFog.No wind82%29.98 "Hg1 mi
12:30 am54 °FFog.No wind88%29.98 "Hg1 mi
12:00 am55 °FFog.No wind82%29.98 "Hg1 mi
11:30 pm
Wed, Dec 7
55 °FFog.2 mph88%29.98 "Hg1 mi
11:00 pm55 °FFog.3 mph88%29.98 "Hg1 mi
10:30 pm57 °FFog.No wind82%29.98 "Hg2 mi
9:30 pm55 °FFog.6 mph82%29.98 "Hg2 mi
9:00 pm55 °FFog.5 mph82%29.98 "Hg2 mi
8:30 pm57 °FFog.2 mph82%29.98 "Hg2 mi
8:00 pm59 °FFog.2 mph77%29.98 "Hg2 mi
7:30 pm59 °FFog.2 mph82%29.95 "Hg2 mi
7:00 pm59 °FHaze.No wind77%29.98 "Hg2 mi
6:30 pm63 °FHaze.No wind59%29.95 "Hg2 mi
6:00 pm64 °FHaze.No wind60%29.95 "Hg2 mi
5:30 pm64 °FHaze.5 mph60%29.95 "Hg2 mi
4:30 pm72 °FHaze.6 mph41%29.95 "Hg2 mi
3:30 pm73 °FHaze.7 mph38%29.95 "Hg2 mi
3:00 pm73 °FHaze.8 mph38%29.95 "Hg2 mi
2:30 pm73 °FHaze.8 mph44%29.98 "Hg2 mi
2:00 pm72 °FHaze.8 mph47%29.98 "Hg2 mi
1:30 pm70 °FHaze.8 mph50%30.01 "Hg2 mi
1:00 pm70 °FHaze.6 mph50%30.01 "Hg2 mi
12:30 pm68 °FHaze.6 mph56%30.04 "Hg2 mi
12:00 pm66 °FHaze.2 mph56%30.04 "Hg2 mi
11:30 am66 °FHaze.2 mph60%30.07 "Hg2 mi
11:00 am63 °FHaze.2 mph73%30.07 "Hg1 mi
10:30 am61 °FHaze.8 mph72%30.07 "Hg1 mi
10:00 am59 °FFog.5 mph77%30.07 "Hg1 mi
9:30 am55 °FFog.3 mph88%30.07 "Hg1 mi
9:00 am52 °FFog.3 mph94%30.04 "Hg1 mi
8:30 am50 °FFog.No wind94%30.04 "Hg1 mi
8:00 am48 °FFog.No wind94%30.04 "Hg1 mi
7:30 am46 °FFog.2 mph93%30.01 "Hg1 mi
7:00 am46 °FFog.No wind93%30.01 "Hg1 mi
Weather by CustomWeather, © 2022

See weather overview